Terminal Aerodrome Forecast
Issued by NWS

Home | Current Version | Previous Version | Text Only | Print | Product List | Glossary On
Versions: 1 2 3 4 5 6 7 8 9 10 11 12 13 14
000
FTUS44 KEPZ 280500
TAFDMN
TAF
KDMN 280526Z 2806/2906 27011KT P6SM VCTS SCT100CB BKN250
     FM281100 VRB06KT P6SM FEW120 SCT150
     FM282000 16012KT P6SM VCTS BKN080CB BKN250
     FM290400 VRB06KT P6SM SCT100 BKN250=

USA.gov is the U.S. government's official web portal to all federal, state and local government web resources and services.